Time;durP1;ratioP1;P1;durP2;ratioP2;P2;SDS_P1;SDS_P2;PMS_P1;PMS_P2;Temp;Humidity;BMP_temperature;BMP_pressure;BME280_temperature;BME280_humidity;BME280_pressure;Samples;Min_cycle;Max_cycle;Signal;HPM_P1;HPM_P2
2023/12/15 00:02:03;;;;;;;0.20;0.20;;;;;;;14.06;63.63;102690.69;5072400;28;20067;-70
2023/12/15 00:04:29;;;;;;;0.10;0.10;;;;;;;13.91;64.36;102687.31;5072414;28;20120;-70
2023/12/15 00:06:54;;;;;;;0.20;0.20;;;;;;;13.93;63.87;102687.97;5072378;28;20090;-68
2023/12/15 00:09:19;;;;;;;0.22;0.22;;;;;;;13.95;63.45;102684.00;5072751;28;20089;-69
2023/12/15 00:11:45;;;;;;;0.30;0.30;;;;;;;14.15;63.72;102689.50;5072144;28;20036;-69
2023/12/15 00:14:10;;;;;;;0.30;0.30;;;;;;;13.82;64.16;102693.91;5072147;28;20037;-69
2023/12/15 00:16:35;;;;;;;0.30;0.30;;;;;;;15.30;60.36;102703.53;5072334;28;20123;-69
2023/12/15 00:19:01;;;;;;;0.30;0.30;;;;;;;14.08;63.60;102707.53;5072206;28;20555;-69
2023/12/15 00:21:26;;;;;;;0.20;0.20;;;;;;;14.17;64.39;102709.03;5072682;28;20043;-69
2023/12/15 00:23:51;;;;;;;0.20;0.20;;;;;;;13.05;66.29;102715.69;5072023;28;20190;-70
2023/12/15 00:26:16;;;;;;;0.40;0.40;;;;;;;14.51;63.56;102718.91;5071847;28;20119;-69
2023/12/15 00:28:42;;;;;;;0.20;0.20;;;;;;;13.94;64.45;102713.94;5083745;28;20044;-68
2023/12/15 00:31:07;;;;;;;0.20;0.20;;;;;;;14.16;63.54;102723.59;5075316;28;20053;-69
2023/12/15 00:33:32;;;;;;;0.20;0.20;;;;;;;14.18;64.27;102715.28;5072529;28;20039;-68
2023/12/15 00:36:01;;;;;;;0.25;0.25;;;;;;;14.51;62.99;102729.75;5071669;28;20045;-68
2023/12/15 00:38:26;;;;;;;0.20;0.20;;;;;;;14.57;63.16;102713.53;5072380;28;20036;-69
2023/12/15 00:40:51;;;;;;;0.20;0.20;;;;;;;14.50;62.73;102711.84;5072151;28;20036;-68
2023/12/15 00:43:17;;;;;;;0.30;0.30;;;;;;;13.94;64.69;102705.81;5071339;28;20051;-69
2023/12/15 00:45:42;;;;;;;0.20;0.20;;;;;;;13.72;65.79;102718.63;5072325;28;20069;-68
2023/12/15 00:48:08;;;;;;;0.25;0.25;;;;;;;14.49;63.34;102715.59;5071761;28;20059;-68
2023/12/15 00:50:34;;;;;;;0.30;0.30;;;;;;;14.55;63.21;102718.31;5068641;28;20072;-68
2023/12/15 00:52:59;;;;;;;0.20;0.20;;;;;;;13.91;65.19;102731.41;5051766;28;20064;-68
2023/12/15 00:55:24;;;;;;;0.20;0.20;;;;;;;14.56;63.58;102721.84;5033330;28;20048;-68
2023/12/15 00:57:50;;;;;;;0.30;0.30;;;;;;;13.43;66.48;102721.56;5051421;28;20599;-69
2023/12/15 01:00:15;;;;;;;0.20;0.20;;;;;;;13.84;64.91;102727.81;5070525;28;20028;-68
2023/12/15 01:02:41;;;;;;;0.20;0.20;;;;;;;13.87;64.87;102724.72;5071237;28;20059;-69
2023/12/15 01:05:06;;;;;;;0.35;0.35;;;;;;;14.49;62.74;102729.97;5071605;28;20037;-69
2023/12/15 01:07:32;;;;;;;0.30;0.30;;;;;;;14.06;64.86;102739.34;5071673;28;20059;-68
2023/12/15 01:09:57;;;;;;;0.30;0.30;;;;;;;13.34;67.42;102740.81;5071126;28;20074;-68
2023/12/15 01:12:23;;;;;;;0.30;0.30;;;;;;;14.11;65.63;102748.53;5071599;28;20059;-69
2023/12/15 01:14:49;;;;;;;0.20;0.20;;;;;;;14.00;64.72;102759.06;5040096;28;20087;-69
2023/12/15 01:17:14;;;;;;;0.35;0.35;;;;;;;13.47;67.89;102762.50;5033119;28;20040;-68
2023/12/15 01:19:39;;;;;;;0.20;0.20;;;;;;;14.25;65.71;102770.22;5051086;28;20044;-69
2023/12/15 01:22:05;;;;;;;0.30;0.30;;;;;;;13.91;65.21;102765.69;5051229;28;20123;-68
2023/12/15 01:24:30;;;;;;;0.20;0.20;;;;;;;14.06;65.58;102771.78;5059207;28;20107;-68
2023/12/15 01:26:55;;;;;;;0.30;0.30;;;;;;;14.22;65.53;102759.78;5071137;28;20132;-69
2023/12/15 01:29:21;;;;;;;0.22;0.22;;;;;;;14.62;64.12;102772.44;5071323;28;20123;-68
2023/12/15 01:31:46;;;;;;;0.30;0.30;;;;;;;14.27;65.35;102768.16;5070808;28;20111;-68
2023/12/15 01:34:11;;;;;;;0.20;0.20;;;;;;;14.54;63.93;102773.47;5070982;28;20060;-69
2023/12/15 01:36:37;;;;;;;0.20;0.20;;;;;;;15.20;61.68;102777.09;5071495;28;20040;-69
2023/12/15 01:39:02;;;;;;;0.30;0.30;;;;;;;14.06;65.89;102790.72;5071445;28;20573;-69
2023/12/15 01:41:28;;;;;;;0.13;0.13;;;;;;;14.40;64.50;102790.69;5070836;28;20403;-69
2023/12/15 01:43:53;;;;;;;0.40;0.40;;;;;;;14.68;64.19;102782.47;5070987;28;20029;-68
2023/12/15 01:46:18;;;;;;;0.40;0.40;;;;;;;14.71;62.68;102787.44;5070795;28;20032;-68
2023/12/15 01:48:44;;;;;;;0.20;0.20;;;;;;;15.05;62.59;102778.34;5052117;28;20083;-67
2023/12/15 01:51:09;;;;;;;0.40;0.40;;;;;;;14.29;65.56;102771.53;5051239;28;20033;-68
2023/12/15 01:53:35;;;;;;;0.30;0.30;;;;;;;14.38;65.73;102784.66;5050836;28;20045;-69
2023/12/15 01:56:00;;;;;;;0.30;0.30;;;;;;;14.23;67.83;102777.69;5050901;28;20037;-70
2023/12/15 01:58:26;;;;;;;0.40;0.40;;;;;;;15.40;62.42;102785.22;5053589;28;20047;-69
2023/12/15 02:00:51;;;;;;;0.20;0.20;;;;;;;14.48;64.56;102795.09;5070565;28;20113;-68
2023/12/15 02:03:16;;;;;;;0.40;0.40;;;;;;;14.32;65.09;102801.69;5071283;28;20138;-68
2023/12/15 02:05:42;;;;;;;0.20;0.20;;;;;;;15.04;63.25;102806.44;5070480;28;20047;-68
2023/12/15 02:08:07;;;;;;;0.40;0.40;;;;;;;15.01;62.69;102812.28;5070781;28;20487;-70
2023/12/15 02:10:37;;;;;;;0.20;0.20;;;;;;;15.88;60.09;102805.59;5070705;28;20888;-68
2023/12/15 02:13:02;;;;;;;0.23;0.23;;;;;;;15.05;62.08;102817.09;5070573;28;20108;-68
2023/12/15 02:15:28;;;;;;;0.20;0.20;;;;;;;15.87;60.10;102817.50;5071371;28;20570;-69
2023/12/15 02:17:53;;;;;;;0.20;0.20;;;;;;;15.65;60.93;102826.91;5070524;28;20086;-69
2023/12/15 02:20:18;;;;;;;0.30;0.30;;;;;;;15.84;59.94;102826.88;5070489;28;20068;-70
2023/12/15 02:22:44;;;;;;;0.30;0.30;;;;;;;15.59;60.51;102836.72;5055513;28;20564;-69
2023/12/15 02:25:09;;;;;;;0.32;0.32;;;;;;;15.04;61.48;102845.19;5074671;28;20450;-69
2023/12/15 02:27:34;;;;;;;0.30;0.30;;;;;;;15.20;62.47;102844.81;5074853;28;20031;-69
2023/12/15 02:30:00;;;;;;;0.40;0.40;;;;;;;15.66;61.25;102848.38;5074667;28;20037;-69
2023/12/15 02:32:25;;;;;;;0.20;0.20;;;;;;;14.73;63.99;102858.44;5074732;28;20048;-68
2023/12/15 02:34:50;;;;;;;0.40;0.40;;;;;;;15.38;63.25;102850.44;5074206;28;20189;-68
2023/12/15 02:37:16;;;;;;;0.28;0.28;;;;;;;14.95;63.25;102857.25;5074582;28;20131;-69
2023/12/15 02:39:41;;;;;;;0.40;0.40;;;;;;;15.44;61.54;102863.19;5074916;28;20068;-69
2023/12/15 02:42:06;;;;;;;0.30;0.30;;;;;;;15.77;60.60;102865.88;5074371;28;20177;-68
2023/12/15 02:44:32;;;;;;;0.30;0.30;;;;;;;14.38;64.76;102863.09;5074051;28;20131;-69
2023/12/15 02:46:57;;;;;;;0.20;0.20;;;;;;;15.88;60.44;102865.22;5074395;28;20037;-68
2023/12/15 02:49:23;;;;;;;0.40;0.40;;;;;;;16.16;59.44;102860.38;5074558;28;20048;-69
2023/12/15 02:51:48;;;;;;;0.20;0.20;;;;;;;16.62;57.63;102865.69;5074057;28;20020;-68
2023/12/15 02:54:13;;;;;;;0.13;0.13;;;;;;;14.68;64.38;102859.03;5074512;28;20064;-69
2023/12/15 02:56:39;;;;;;;0.40;0.40;;;;;;;15.35;62.92;102866.28;5074240;28;20411;-70
2023/12/15 02:59:04;;;;;;;0.32;0.32;;;;;;;16.21;59.02;102855.16;5073811;28;20072;-69
2023/12/15 03:01:29;;;;;;;0.30;0.30;;;;;;;15.31;62.06;102855.00;5055462;28;20041;-69
2023/12/15 03:03:55;;;;;;;0.28;0.28;;;;;;;15.07;62.53;102852.06;5073969;28;20459;-68
2023/12/15 03:06:20;;;;;;;0.20;0.20;;;;;;;15.92;60.77;102862.97;5069187;28;20033;-69
2023/12/15 03:08:46;;;;;;;0.20;0.20;;;;;;;15.43;62.43;102861.50;5053970;28;20048;-69
2023/12/15 03:11:11;;;;;;;0.30;0.30;;;;;;;15.75;60.38;102867.97;5053913;28;20523;-69
2023/12/15 03:13:39;;;;;;;0.30;0.30;;;;;;;16.34;58.69;102871.41;5066537;28;20028;-69
2023/12/15 03:16:10;;;;;;;0.30;0.30;;;;;;;15.37;61.72;102886.69;5073651;28;20679;-69
2023/12/15 03:18:36;;;;;;;0.30;0.30;;;;;;;14.88;63.35;102891.59;5054113;28;20436;-68
2023/12/15 03:21:02;;;;;;;0.40;0.40;;;;;;;14.84;65.11;102893.03;5035264;28;20440;-69
2023/12/15 03:23:27;;;;;;;0.30;0.30;;;;;;;14.82;65.39;102895.94;5053455;28;20029;-69
2023/12/15 03:25:53;;;;;;;0.30;0.30;;;;;;;13.96;68.40;102888.41;5053775;28;20029;-69
2023/12/15 03:28:18;;;;;;;0.20;0.20;;;;;;;14.79;64.96;102887.41;5053241;28;20076;-69
2023/12/15 03:30:44;;;;;;;0.30;0.30;;;;;;;15.00;64.55;102892.66;5053631;28;20112;-70
2023/12/15 03:33:09;;;;;;;0.30;0.30;;;;;;;14.64;65.34;102898.38;5054010;28;20017;-68
2023/12/15 03:35:35;;;;;;;0.20;0.20;;;;;;;15.17;63.50;102893.13;5053097;28;20036;-69
2023/12/15 03:38:03;;;;;;;0.20;0.20;;;;;;;14.64;65.60;102890.25;5053448;28;20409;-69
2023/12/15 03:40:28;;;;;;;0.32;0.32;;;;;;;14.96;64.57;102892.25;5065944;28;20041;-68
2023/12/15 03:43:12;;;;;;;0.40;0.40;;;;;;;15.52;62.92;102900.94;5073135;28;20829;-68
2023/12/15 03:45:37;;;;;;;0.28;0.28;;;;;;;15.09;63.05;102896.03;5073745;28;20036;-69
2023/12/15 03:48:03;;;;;;;0.32;0.32;;;;;;;14.80;63.77;102892.59;5073440;28;20051;-69
2023/12/15 03:50:29;;;;;;;0.22;0.22;;;;;;;15.14;63.49;102904.38;5073043;28;20040;-69
2023/12/15 03:52:55;;;;;;;0.30;0.30;;;;;;;16.10;59.27;102917.34;5073256;28;20127;-68
2023/12/15 03:55:21;;;;;;;0.30;0.30;;;;;;;15.42;62.13;102914.06;5073182;28;20136;-70
2023/12/15 03:57:46;;;;;;;0.20;0.20;;;;;;;16.29;59.14;102913.78;5073043;28;20444;-68
2023/12/15 04:00:12;;;;;;;0.30;0.30;;;;;;;14.77;64.23;102909.28;5055103;28;20033;-69
2023/12/15 04:02:38;;;;;;;0.20;0.20;;;;;;;15.79;60.50;102908.03;5068435;28;20437;-69
2023/12/15 04:05:03;;;;;;;0.20;0.20;;;;;;;15.65;59.83;102910.94;5072537;28;20128;-69
2023/12/15 04:07:28;;;;;;;0.30;0.30;;;;;;;15.24;62.39;102911.06;5072942;28;20068;-69
2023/12/15 04:09:54;;;;;;;0.30;0.30;;;;;;;16.36;58.36;102909.16;5072850;28;20497;-69
2023/12/15 04:12:19;;;;;;;0.30;0.30;;;;;;;16.06;59.07;102924.28;5054367;28;20461;-68
2023/12/15 04:14:45;;;;;;;0.30;0.30;;;;;;;16.27;57.97;102918.59;5072475;28;20044;-70
2023/12/15 04:17:10;;;;;;;0.20;0.20;;;;;;;17.04;55.57;102927.50;5072490;28;20177;-69
2023/12/15 04:19:35;;;;;;;0.20;0.20;;;;;;;16.10;58.64;102925.50;5072488;28;20048;-69
2023/12/15 04:22:01;;;;;;;0.28;0.28;;;;;;;16.24;57.82;102930.69;5072452;28;20081;-69
2023/12/15 04:24:26;;;;;;;0.35;0.35;;;;;;;16.04;59.88;102924.47;5072748;28;20100;-70
2023/12/15 04:26:53;;;;;;;0.30;0.30;;;;;;;17.04;55.72;102922.06;5072322;28;20140;-69
2023/12/15 04:29:18;;;;;;;0.30;0.30;;;;;;;16.04;58.75;102921.75;5072185;28;20120;-69
2023/12/15 04:31:43;;;;;;;0.30;0.30;;;;;;;16.28;58.60;102941.94;5072291;28;20736;-69
2023/12/15 04:34:09;;;;;;;0.30;0.30;;;;;;;15.54;60.38;102950.34;5072163;28;20383;-70
2023/12/15 04:36:34;;;;;;;0.35;0.35;;;;;;;15.15;62.04;102946.66;5072644;28;20384;-68
2023/12/15 04:39:00;;;;;;;0.40;0.40;;;;;;;16.05;58.78;102949.72;5072058;28;20047;-69
2023/12/15 04:41:28;;;;;;;0.50;0.50;;;;;;;17.16;55.41;102961.09;5072137;28;20190;-70
2023/12/15 04:43:54;;;;;;;0.30;0.30;;;;;;;16.85;55.43;102963.75;5071169;28;20123;-69
2023/12/15 04:46:29;;;;;;;0.30;0.30;;;;;;;17.03;56.48;102961.16;5071700;28;20190;-69
2023/12/15 04:49:01;;;;;;;0.85;0.30;;;;;;;17.06;55.33;102966.16;5071737;28;20036;-69
2023/12/15 04:51:27;;;;;;;0.10;0.10;;;;;;;16.17;58.19;102961.59;5071930;28;20025;-69
2023/12/15 04:53:52;;;;;;;0.22;0.22;;;;;;;15.37;63.13;102957.13;5071668;28;20043;-69
2023/12/15 04:56:18;;;;;;;0.30;0.30;;;;;;;15.56;61.91;102959.09;5071858;28;20097;-69
2023/12/15 04:58:44;;;;;;;0.30;0.30;;;;;;;15.49;61.30;102968.22;5069832;28;20128;-70
2023/12/15 05:01:13;;;;;;;0.40;0.40;;;;;;;16.20;59.04;102967.44;5051851;28;20044;-69
2023/12/15 05:03:43;;;;;;;0.30;0.30;;;;;;;15.36;63.21;102969.03;5070960;28;20361;-68
2023/12/15 05:06:17;;;;;;;0.30;0.30;;;;;;;15.65;61.55;102981.41;5077241;28;20044;-70
2023/12/15 05:08:43;;;;;;;0.20;0.20;;;;;;;16.20;59.73;102986.41;5067646;28;20036;-69
2023/12/15 05:11:08;;;;;;;0.25;0.25;;;;;;;16.03;59.68;103003.31;5054101;28;20033;-69
2023/12/15 05:13:33;;;;;;;0.20;0.20;;;;;;;16.99;55.67;102997.97;5059173;28;20037;-69
2023/12/15 05:15:58;;;;;;;0.35;0.35;;;;;;;15.76;59.63;103002.50;5057163;28;20095;-69
2023/12/15 05:18:24;;;;;;;0.20;0.20;;;;;;;14.87;62.91;102996.34;5050064;28;20043;-68
2023/12/15 05:20:49;;;;;;;0.20;0.20;;;;;;;15.49;61.08;102990.75;5050218;28;20036;-68
2023/12/15 05:23:15;;;;;;;0.20;0.20;;;;;;;16.08;59.15;102998.94;5050206;28;20063;-69
2023/12/15 05:25:40;;;;;;;0.20;0.20;;;;;;;16.11;59.43;103003.97;5050610;28;20086;-69
2023/12/15 05:28:05;;;;;;;0.30;0.30;;;;;;;15.73;60.29;103009.16;5049957;28;20041;-69
2023/12/15 05:30:31;;;;;;;0.30;0.30;;;;;;;16.21;58.67;103020.66;5032031;28;20412;-68
2023/12/15 05:32:56;;;;;;;0.20;0.20;;;;;;;16.30;57.52;103010.41;5049975;28;20123;-70
2023/12/15 05:35:21;;;;;;;0.20;0.20;;;;;;;15.41;61.67;103011.78;5050957;28;20043;-68
2023/12/15 05:37:49;;;;;;;0.20;0.20;;;;;;;15.84;60.36;103011.25;5086788;28;20067;-68
2023/12/15 05:40:15;;;;;;;0.30;0.30;;;;;;;16.53;58.26;103006.22;5090390;28;20036;-69
2023/12/15 05:42:41;;;;;;;0.30;0.30;;;;;;;16.67;56.05;103020.59;5090690;28;20024;-69
2023/12/15 05:45:07;;;;;;;0.20;0.20;;;;;;;16.74;56.37;103020.59;5089777;28;20063;-68
2023/12/15 05:47:33;;;;;;;0.20;0.20;;;;;;;16.62;56.79;103021.28;5090379;28;20075;-69
2023/12/15 05:49:58;;;;;;;0.32;0.32;;;;;;;15.88;59.41;103029.81;5084603;28;20128;-68
2023/12/15 05:52:25;;;;;;;0.20;0.20;;;;;;;15.15;61.28;103039.59;5065766;28;20553;-69
2023/12/15 05:54:50;;;;;;;0.30;0.30;;;;;;;15.00;62.62;103040.78;5061155;28;20028;-69
2023/12/15 05:57:15;;;;;;;0.20;0.20;;;;;;;15.29;61.97;103052.13;5066820;28;20024;-69
2023/12/15 05:59:41;;;;;;;0.40;0.40;;;;;;;15.27;61.30;103056.09;5068168;28;20135;-70
2023/12/15 06:02:06;;;;;;;0.30;0.30;;;;;;;15.44;61.06;103052.88;5068069;28;20037;-69
2023/12/15 06:04:32;;;;;;;0.35;0.35;;;;;;;15.13;61.39;103057.91;5068707;28;20039;-68
2023/12/15 06:06:57;;;;;;;0.30;0.30;;;;;;;15.34;61.41;103054.25;5068665;28;20427;-68
2023/12/15 06:09:22;;;;;;;0.40;0.40;;;;;;;14.69;62.42;103055.59;5067631;28;20024;-69
2023/12/15 06:11:48;;;;;;;0.25;0.25;;;;;;;14.93;63.39;103054.25;5068325;28;20051;-70
2023/12/15 06:14:14;;;;;;;0.20;0.20;;;;;;;15.43;61.58;103053.06;5049280;28;20044;-68
2023/12/15 06:16:39;;;;;;;0.30;0.30;;;;;;;15.71;60.66;103061.91;5068780;28;20300;-69
2023/12/15 06:19:05;;;;;;;0.30;0.30;;;;;;;14.89;63.42;103066.53;5069389;28;20450;-69
2023/12/15 06:21:30;;;;;;;0.28;0.28;;;;;;;15.39;61.75;103065.31;5069524;28;20021;-69
2023/12/15 06:23:56;;;;;;;0.20;0.20;;;;;;;14.82;63.63;103063.78;5069109;28;20049;-68
2023/12/15 06:26:24;;;;;;;0.30;0.30;;;;;;;14.71;63.69;103072.47;5068888;28;20041;-69
2023/12/15 06:28:50;;;;;;;0.30;0.30;;;;;;;14.67;64.55;103073.88;5069028;28;20040;-69
2023/12/15 06:31:15;;;;;;;0.30;0.30;;;;;;;14.98;63.14;103065.31;5050836;28;20073;-69
2023/12/15 06:33:41;;;;;;;0.52;0.52;;;;;;;15.59;61.36;103067.06;5069226;28;20657;-68
2023/12/15 06:36:07;;;;;;;0.40;0.40;;;;;;;15.77;60.14;103066.50;5079729;28;20063;-69
2023/12/15 06:38:35;;;;;;;0.40;0.40;;;;;;;15.29;63.21;103059.44;5077216;28;20028;-69
2023/12/15 06:41:00;;;;;;;0.30;0.30;;;;;;;15.40;60.90;103062.41;5079496;28;20090;-69
2023/12/15 06:43:26;;;;;;;0.22;0.22;;;;;;;15.66;60.76;103078.75;5079293;28;20677;-70
2023/12/15 06:45:51;;;;;;;0.28;0.28;;;;;;;14.91;63.27;103084.25;5077070;28;20114;-68
2023/12/15 06:48:17;;;;;;;0.30;0.30;;;;;;;14.76;64.98;103082.69;5079611;28;20102;-70
2023/12/15 06:50:42;;;;;;;0.32;0.32;;;;;;;14.86;64.73;103080.44;5075637;28;20068;-69
2023/12/15 06:53:07;;;;;;;0.32;0.32;;;;;;;14.79;64.22;103082.28;5079287;28;20056;-69
2023/12/15 06:55:33;;;;;;;0.40;0.40;;;;;;;15.16;62.65;103086.44;5079072;28;20616;-68
2023/12/15 06:57:58;;;;;;;0.28;0.28;;;;;;;14.88;63.64;103091.91;5074116;28;20489;-67
2023/12/15 07:00:23;;;;;;;0.30;0.30;;;;;;;14.74;64.95;103099.13;5067247;28;20424;-69
2023/12/15 07:02:49;;;;;;;0.38;0.38;;;;;;;14.57;65.02;103099.59;5070951;28;20032;-68
2023/12/15 07:05:14;;;;;;;0.40;0.40;;;;;;;14.24;66.70;103102.00;5067887;28;20128;-68
2023/12/15 07:07:40;;;;;;;0.32;0.32;;;;;;;14.85;65.46;103097.75;5071393;28;20048;-68
2023/12/15 07:10:06;;;;;;;0.22;0.22;;;;;;;15.54;62.33;103093.13;5073708;28;20041;-69
2023/12/15 07:12:31;;;;;;;0.30;0.30;;;;;;;16.30;59.98;103100.78;5083070;28;20426;-68
2023/12/15 07:14:56;;;;;;;0.30;0.30;;;;;;;15.96;61.03;103110.97;5056351;28;20419;-69
2023/12/15 07:17:22;;;;;;;0.30;0.30;;;;;;;16.10;60.06;103121.63;5072300;28;20041;-69
2023/12/15 07:19:47;;;;;;;0.50;0.50;;;;;;;14.91;64.35;103124.03;5070964;28;20029;-67
2023/12/15 07:22:13;;;;;;;0.20;0.20;;;;;;;14.95;65.50;103123.44;5069634;28;20044;-68
2023/12/15 07:24:40;;;;;;;0.20;0.20;;;;;;;15.42;63.38;103122.69;5069854;28;20484;-67
2023/12/15 07:27:06;;;;;;;0.20;0.20;;;;;;;14.48;67.76;103117.03;5080445;28;20427;-68
2023/12/15 07:29:31;;;;;;;0.20;0.20;;;;;;;15.47;63.63;103125.59;5074243;28;20041;-68
2023/12/15 07:31:56;;;;;;;0.40;0.40;;;;;;;15.54;63.34;103122.94;5081860;28;20410;-68
2023/12/15 07:34:22;;;;;;;0.40;0.40;;;;;;;14.91;65.87;103142.97;5073790;28;20127;-68
2023/12/15 07:36:47;;;;;;;0.50;0.50;;;;;;;15.57;63.72;103144.19;5077333;28;20091;-67
2023/12/15 07:39:12;;;;;;;0.22;0.22;;;;;;;15.50;62.47;103157.75;5074590;28;20032;-68
2023/12/15 07:41:39;;;;;;;0.20;0.20;;;;;;;15.25;65.20;103152.97;5052972;28;20357;-69
2023/12/15 07:44:04;;;;;;;0.30;0.30;;;;;;;15.34;64.03;103162.63;5070505;28;20124;-68
2023/12/15 07:46:30;;;;;;;0.30;0.30;;;;;;;16.40;59.56;103160.06;5075448;28;20547;-69
2023/12/15 07:48:55;;;;;;;0.38;0.38;;;;;;;16.11;60.23;103161.28;5069408;28;20115;-68
2023/12/15 07:51:21;;;;;;;0.40;0.40;;;;;;;15.76;61.48;103163.25;5080644;28;20115;-69
2023/12/15 07:53:47;;;;;;;0.40;0.40;;;;;;;15.61;62.42;103170.72;5079919;28;20036;-69
2023/12/15 07:56:23;;;;;;;0.20;0.20;;;;;;;15.59;62.56;103182.78;5083270;28;20593;-68
2023/12/15 07:58:49;;;;;;;0.30;0.30;;;;;;;15.94;60.90;103178.16;5078789;28;20117;-68
2023/12/15 08:01:16;;;;;;;0.40;0.40;;;;;;;15.69;62.48;103194.94;5077988;28;20088;-68
2023/12/15 08:03:42;;;;;;;0.30;0.30;;;;;;;15.88;60.79;103197.94;5080639;28;20036;-70
2023/12/15 08:06:07;;;;;;;0.20;0.20;;;;;;;15.29;63.44;103203.03;5071388;28;20055;-68
2023/12/15 08:08:33;;;;;;;0.20;0.20;;;;;;;15.28;63.63;103213.00;5069579;28;20044;-68
2023/12/15 08:10:58;;;;;;;0.30;0.30;;;;;;;15.51;63.11;103212.75;5063758;28;20463;-69
2023/12/15 08:13:23;;;;;;;0.43;0.43;;;;;;;15.35;65.29;103218.50;5073974;28;20527;-70
2023/12/15 08:15:49;;;;;;;0.20;0.20;;;;;;;15.06;65.45;103224.09;5080889;28;20056;-69
2023/12/15 08:18:14;;;;;;;0.30;0.30;;;;;;;15.18;64.95;103225.22;5091465;28;20047;-69
2023/12/15 08:20:39;;;;;;;0.20;0.20;;;;;;;15.51;64.37;103231.72;5085995;28;20051;-69
2023/12/15 08:23:05;;;;;;;0.30;0.30;;;;;;;15.60;63.00;103222.41;5076238;28;20089;-68
2023/12/15 08:25:30;;;;;;;0.40;0.40;;;;;;;15.79;63.88;103232.50;5091386;28;20043;-68
2023/12/15 08:27:55;;;;;;;0.40;0.40;;;;;;;16.16;60.96;103237.47;5091222;28;20040;-67
2023/12/15 08:30:21;;;;;;;0.30;0.30;;;;;;;16.71;59.19;103244.50;5072835;28;20046;-69
2023/12/15 08:32:46;;;;;;;0.43;0.43;;;;;;;16.16;61.43;103251.03;5090953;28;20143;-69
2023/12/15 08:35:11;;;;;;;0.30;0.30;;;;;;;15.32;63.60;103248.66;5090963;28;20060;-68
2023/12/15 08:37:37;;;;;;;0.35;0.35;;;;;;;15.58;63.32;103257.00;5090886;28;20050;-70
2023/12/15 08:40:02;;;;;;;0.38;0.38;;;;;;;16.05;61.53;103259.75;5091125;28;20039;-69
2023/12/15 08:42:28;;;;;;;0.60;0.60;;;;;;;15.92;63.47;103265.09;5091248;28;20043;-69
2023/12/15 08:44:53;;;;;;;0.43;0.43;;;;;;;15.24;66.26;103265.06;5077140;28;20044;-68
2023/12/15 08:47:18;;;;;;;0.40;0.40;;;;;;;15.59;64.78;103269.50;5070577;28;20115;-70
2023/12/15 08:49:44;;;;;;;0.30;0.30;;;;;;;15.31;65.32;103272.19;5070556;28;20036;-69
2023/12/15 08:52:09;;;;;;;0.40;0.40;;;;;;;15.73;62.62;103272.13;5070258;28;20131;-69
2023/12/15 08:54:34;;;;;;;0.40;0.40;;;;;;;16.40;61.35;103276.78;5070615;28;20119;-69
2023/12/15 08:57:00;;;;;;;0.40;0.40;;;;;;;15.97;62.44;103278.06;5070366;28;20063;-69
2023/12/15 08:59:25;;;;;;;0.30;0.30;;;;;;;16.20;61.74;103284.84;5067962;28;20526;-68
2023/12/15 09:01:50;;;;;;;0.40;0.40;;;;;;;16.88;60.08;103283.81;5070357;28;20104;-69
2023/12/15 09:04:16;;;;;;;0.50;0.50;;;;;;;15.63;63.71;103297.91;5070246;28;20062;-69
2023/12/15 09:06:41;;;;;;;0.20;0.20;;;;;;;15.75;62.79;103293.59;5070628;28;20040;-69
2023/12/15 09:09:07;;;;;;;0.30;0.30;;;;;;;16.07;62.67;103294.81;5070505;28;20169;-69
2023/12/15 09:11:33;;;;;;;0.30;0.30;;;;;;;16.62;60.13;103300.91;5070014;28;20519;-69
2023/12/15 09:14:01;;;;;;;0.38;0.38;;;;;;;16.21;62.09;103310.97;5069712;28;20033;-69
2023/12/15 09:16:26;;;;;;;0.20;0.20;;;;;;;16.78;59.72;103315.13;5069738;28;20047;-69
2023/12/15 09:18:52;;;;;;;0.40;0.40;;;;;;;16.49;60.67;103322.56;5070258;28;20482;-69
2023/12/15 09:21:17;;;;;;;0.20;0.20;;;;;;;15.88;62.93;103331.63;5070523;28;20028;-68
2023/12/15 09:23:43;;;;;;;0.50;0.50;;;;;;;15.74;64.69;103341.56;5070166;28;20044;-69
2023/12/15 09:26:08;;;;;;;0.40;0.40;;;;;;;15.91;63.58;103347.50;5069780;28;20459;-68
2023/12/15 09:28:34;;;;;;;0.40;0.40;;;;;;;16.20;61.94;103359.97;5069804;28;20460;-69
2023/12/15 09:30:59;;;;;;;0.30;0.30;;;;;;;16.16;61.54;103370.41;5069294;28;20032;-68
2023/12/15 09:33:24;;;;;;;0.30;0.30;;;;;;;16.72;60.08;103364.81;5070115;28;20061;-69
2023/12/15 09:35:53;;;;;;;0.50;0.50;;;;;;;16.43;61.48;103369.47;5069468;28;20392;-68
2023/12/15 09:38:19;;;;;;;0.40;0.40;;;;;;;15.57;64.10;103378.13;5069828;28;20051;-68
2023/12/15 09:40:45;;;;;;;0.30;0.30;;;;;;;16.45;61.53;103378.25;5069581;28;20032;-69
2023/12/15 09:43:11;;;;;;;0.32;0.32;;;;;;;16.03;62.13;103374.91;5069496;28;20123;-69
2023/12/15 09:45:36;;;;;;;0.40;0.40;;;;;;;16.05;62.58;103379.09;5069880;28;20046;-69
2023/12/15 09:48:06;;;;;;;0.25;0.25;;;;;;;15.84;63.73;103377.28;5069749;28;20037;-68
2023/12/15 09:50:33;;;;;;;0.30;0.30;;;;;;;16.04;62.49;103380.13;5069490;28;20036;-68
2023/12/15 09:53:00;;;;;;;0.20;0.20;;;;;;;16.38;61.77;103379.28;5069474;28;20079;-69
2023/12/15 09:55:26;;;;;;;0.28;0.28;;;;;;;16.61;61.27;103383.38;5051387;28;20041;-68
2023/12/15 09:57:53;;;;;;;0.20;0.20;;;;;;;16.28;62.35;103386.94;5068934;28;20020;-69
2023/12/15 10:00:19;;;;;;;0.30;0.30;;;;;;;16.44;61.68;103390.16;5069939;28;20139;-68
2023/12/15 10:02:44;;;;;;;0.30;0.30;;;;;;;16.46;62.16;103392.69;5069287;28;20033;-68
2023/12/15 10:05:10;;;;;;;0.40;0.40;;;;;;;17.25;59.62;103393.78;5069333;28;20561;-69
2023/12/15 10:07:35;;;;;;;0.30;0.30;;;;;;;17.07;60.40;103397.09;5069377;28;20040;-68
2023/12/15 10:10:02;;;;;;;0.50;0.50;;;;;;;17.51;57.87;103393.84;5069224;28;20040;-68
2023/12/15 10:12:30;;;;;;;0.30;0.30;;;;;;;17.39;59.05;103404.44;5069428;28;20052;-69
2023/12/15 10:14:56;;;;;;;0.30;0.30;;;;;;;17.51;58.10;103400.09;5069035;28;20072;-69
2023/12/15 10:17:22;;;;;;;0.30;0.30;;;;;;;16.59;61.44;103419.91;5089252;28;20511;-67
2023/12/15 10:19:47;;;;;;;0.20;0.20;;;;;;;16.85;61.28;103430.03;5089352;28;20046;-68
2023/12/15 10:22:13;;;;;;;0.20;0.20;;;;;;;16.77;60.83;103427.50;5089547;28;20074;-67
2023/12/15 10:24:39;;;;;;;0.20;0.20;;;;;;;16.87;60.94;103438.81;5089726;28;20161;-68
2023/12/15 10:27:07;;;;;;;0.40;0.40;;;;;;;17.37;58.46;103441.91;5089660;28;20506;-68
2023/12/15 10:29:33;;;;;;;0.20;0.20;;;;;;;17.48;58.43;103443.16;5089383;28;20153;-68
2023/12/15 10:31:58;;;;;;;0.20;0.20;;;;;;;17.73;57.44;103443.41;5089632;28;20162;-68
2023/12/15 10:34:25;;;;;;;0.40;0.40;;;;;;;17.26;59.03;103441.63;5089197;28;20036;-68
2023/12/15 10:36:52;;;;;;;0.20;0.20;;;;;;;16.69;61.09;103436.66;5075854;28;20036;-68
2023/12/15 10:39:17;;;;;;;0.30;0.30;;;;;;;17.06;60.19;103429.91;5069726;28;20059;-69
2023/12/15 10:41:44;;;;;;;0.30;0.30;;;;;;;17.75;57.08;103435.88;5069063;28;20064;-69
2023/12/15 10:44:13;;;;;;;0.28;0.28;;;;;;;17.14;58.89;103446.84;5072826;28;20036;-70
2023/12/15 10:46:42;;;;;;;0.35;0.35;;;;;;;16.60;60.76;103437.88;5072992;28;20028;-68
2023/12/15 10:49:09;;;;;;;0.30;0.30;;;;;;;17.62;57.71;103438.59;5073110;28;20500;-68
2023/12/15 10:51:38;;;;;;;0.28;0.28;;;;;;;17.03;59.12;103444.72;5073409;28;20417;-69
2023/12/15 10:54:05;;;;;;;0.30;0.30;;;;;;;17.32;58.75;103435.38;5072790;28;20356;-68
2023/12/15 10:56:31;;;;;;;0.40;0.40;;;;;;;16.62;60.78;103441.22;5072827;28;20120;-68
2023/12/15 10:58:58;;;;;;;0.20;0.20;;;;;;;15.67;63.58;103440.97;5072606;28;20546;-68
2023/12/15 11:01:29;;;;;;;0.10;0.10;;;;;;;16.04;62.64;103447.13;5072537;28;20029;-68
2023/12/15 11:03:55;;;;;;;0.32;0.32;;;;;;;16.02;63.17;103454.63;5072859;28;20395;-69
2023/12/15 11:06:31;;;;;;;0.30;0.30;;;;;;;16.16;63.93;103440.09;5073428;28;20104;-69
2023/12/15 11:09:02;;;;;;;0.28;0.28;;;;;;;16.58;62.69;103448.94;5055048;28;20496;-69
2023/12/15 11:11:30;;;;;;;0.20;0.20;;;;;;;15.86;63.76;103444.91;5072485;28;20416;-68
2023/12/15 11:14:04;;;;;;;0.40;0.40;;;;;;;16.92;60.96;103452.63;5072653;28;20037;-69
2023/12/15 11:16:31;;;;;;;0.32;0.32;;;;;;;17.33;59.78;103453.38;5072638;28;20523;-69
2023/12/15 11:18:58;;;;;;;0.30;0.30;;;;;;;18.36;55.40;103459.84;5072191;28;20036;-69